createdAt,value
2023-03-15T00:00:59.193Z,14.00
2023-03-15T00:03:27.611Z,14.00
2023-03-15T00:05:56.024Z,13.90
2023-03-15T00:08:24.424Z,13.90
2023-03-15T00:10:52.904Z,13.90
2023-03-15T00:13:22.725Z,13.80
2023-03-15T00:15:52.320Z,13.80
2023-03-15T00:18:21.706Z,13.80
2023-03-15T00:20:50.146Z,13.80
2023-03-15T00:23:18.891Z,13.80
2023-03-15T00:25:47.594Z,13.70
2023-03-15T00:28:16.080Z,13.60
2023-03-15T00:30:46.118Z,13.60
2023-03-15T00:33:14.826Z,13.60
2023-03-15T00:35:44.321Z,13.50
2023-03-15T00:38:13.732Z,13.50
2023-03-15T00:40:42.247Z,13.40
2023-03-15T00:43:10.723Z,13.40
2023-03-15T00:45:39.860Z,13.40
2023-03-15T00:48:10.090Z,13.40
2023-03-15T00:50:38.568Z,13.40
2023-03-15T00:53:06.964Z,13.40
2023-03-15T00:55:36.648Z,13.50
2023-03-15T00:58:05.060Z,13.40
2023-03-15T01:00:33.638Z,13.30
2023-03-15T01:03:02.185Z,13.30
2023-03-15T01:05:32.497Z,13.30
2023-03-15T01:08:03.167Z,13.20
2023-03-15T01:10:31.590Z,13.20
2023-03-15T01:12:59.982Z,13.10
2023-03-15T01:15:28.428Z,13.20
2023-03-15T01:17:57.476Z,13.20
2023-03-15T01:20:25.980Z,13.20
2023-03-15T01:22:55.732Z,13.20
2023-03-15T01:25:24.128Z,13.20
2023-03-15T01:27:52.524Z,13.20
2023-03-15T01:30:20.998Z,13.20
2023-03-15T01:32:49.504Z,13.20
2023-03-15T01:35:17.969Z,13.20
2023-03-15T01:37:46.352Z,13.20
2023-03-15T01:40:16.407Z,13.20
2023-03-15T01:42:54.893Z,13.20
2023-03-15T01:45:41.679Z,13.20
2023-03-15T01:48:10.220Z,13.20
2023-03-15T01:50:38.693Z,13.20
2023-03-15T01:53:07.188Z,13.20
2023-03-15T01:55:37.113Z,13.30
2023-03-15T01:58:06.916Z,13.30
2023-03-15T02:00:35.822Z,13.40
2023-03-15T02:03:08.547Z,13.40
2023-03-15T02:05:39.973Z,13.50
2023-03-15T02:08:09.901Z,13.50
2023-03-15T02:10:42.238Z,13.50
2023-03-15T02:13:10.857Z,13.50
2023-03-15T02:15:39.264Z,13.60
2023-03-15T02:18:07.695Z,13.60
2023-03-15T02:20:39.736Z,13.50
2023-03-15T02:23:09.424Z,13.50
2023-03-15T02:25:43.240Z,13.40
2023-03-15T02:28:14.028Z,13.40
2023-03-15T02:30:42.474Z,13.40
2023-03-15T02:33:13.710Z,13.40
2023-03-15T02:35:42.255Z,13.40
2023-03-15T02:38:10.618Z,13.40
2023-03-15T02:40:39.056Z,13.50
2023-03-15T02:43:08.525Z,13.40
2023-03-15T02:45:39.875Z,13.40
2023-03-15T02:48:08.851Z,13.40
2023-03-15T02:50:37.374Z,13.30
2023-03-15T02:53:05.989Z,13.30
2023-03-15T02:55:34.458Z,13.20
2023-03-15T02:58:03.334Z,13.10
2023-03-15T03:00:31.760Z,13.00
2023-03-15T03:03:01.663Z,13.00
2023-03-15T03:05:30.074Z,12.90
2023-03-15T03:07:58.824Z,12.90
2023-03-15T03:10:27.207Z,12.80
2023-03-15T03:12:55.655Z,12.80
2023-03-15T03:15:24.076Z,12.80
2023-03-15T03:17:52.468Z,12.70
2023-03-15T03:20:22.261Z,12.70
2023-03-15T03:22:50.668Z,12.70
2023-03-15T03:25:19.175Z,12.70
2023-03-15T03:27:47.506Z,12.70
2023-03-15T03:30:16.379Z,12.60
2023-03-15T03:32:44.856Z,12.60
2023-03-15T03:35:15.918Z,12.50
2023-03-15T03:37:46.200Z,12.50
2023-03-15T03:40:14.790Z,12.50
2023-03-15T03:42:43.194Z,12.50
2023-03-15T03:45:12.108Z,12.50
2023-03-15T03:47:40.547Z,12.50
2023-03-15T03:50:09.514Z,12.50
2023-03-15T03:52:37.955Z,12.50
2023-03-15T03:55:08.230Z,12.50
2023-03-15T03:57:36.780Z,12.50
2023-03-15T04:00:06.014Z,12.50
2023-03-15T04:02:35.228Z,12.50
2023-03-15T04:05:03.716Z,12.50
2023-03-15T04:07:32.160Z,12.50
2023-03-15T04:10:02.487Z,12.50
2023-03-15T04:12:32.402Z,12.50
2023-03-15T04:15:00.791Z,12.50
2023-03-15T04:17:29.204Z,12.40
2023-03-15T04:19:58.122Z,12.50
2023-03-15T04:22:26.536Z,12.50
2023-03-15T04:24:54.973Z,12.50
2023-03-15T04:27:23.436Z,12.50
2023-03-15T04:29:53.414Z,12.50
2023-03-15T04:32:21.905Z,12.50
2023-03-15T04:34:51.530Z,12.50
2023-03-15T04:37:20.030Z,12.50
2023-03-15T04:39:48.450Z,12.60
2023-03-15T04:42:16.873Z,12.60
2023-03-15T04:44:45.227Z,12.70
2023-03-15T04:47:15.047Z,12.70
2023-03-15T04:49:43.483Z,12.70
2023-03-15T04:52:11.963Z,12.80
2023-03-15T04:54:40.493Z,12.80
2023-03-15T04:57:09.098Z,12.90
2023-03-15T04:59:37.542Z,12.90
2023-03-15T05:02:06.008Z,13.00
2023-03-15T05:04:35.967Z,13.00
2023-03-15T05:07:04.415Z,13.10
2023-03-15T05:09:39.741Z,13.10
2023-03-15T05:12:08.737Z,13.10
2023-03-15T05:14:37.193Z,13.20
2023-03-15T05:17:05.967Z,13.20
2023-03-15T05:19:35.928Z,13.30
2023-03-15T05:22:04.892Z,13.30
2023-03-15T05:24:33.778Z,13.30
2023-03-15T05:27:02.217Z,13.30
2023-03-15T05:29:30.716Z,13.30
2023-03-15T05:31:59.151Z,13.30
2023-03-15T05:34:27.634Z,13.30
2023-03-15T05:36:57.497Z,13.30
2023-03-15T05:39:25.935Z,13.30
2023-03-15T05:41:54.331Z,13.20
2023-03-15T05:44:23.194Z,13.20
2023-03-15T05:46:51.671Z,13.20
2023-03-15T05:49:20.115Z,13.10
2023-03-15T05:51:48.496Z,13.10
2023-03-15T05:54:18.273Z,13.10
2023-03-15T05:56:46.708Z,13.10
2023-03-15T05:59:15.084Z,13.10
2023-03-15T06:01:43.632Z,13.10
2023-03-15T06:04:12.098Z,13.10
2023-03-15T06:06:40.596Z,13.10
2023-03-15T06:09:09.119Z,13.20
2023-03-15T06:11:38.938Z,13.20
2023-03-15T06:14:07.429Z,13.40
2023-03-15T06:16:35.872Z,13.50
2023-03-15T06:19:04.536Z,13.50
2023-03-15T06:21:32.980Z,13.50
2023-03-15T06:24:01.358Z,13.60
2023-03-15T06:26:29.894Z,13.50
2023-03-15T06:28:59.706Z,13.50
2023-03-15T06:31:28.166Z,13.40
2023-03-15T06:33:56.579Z,13.50
2023-03-15T06:36:25.067Z,13.40
2023-03-15T06:38:54.639Z,13.50
2023-03-15T06:41:23.072Z,13.50
2023-03-15T06:43:51.916Z,13.60
2023-03-15T06:46:21.752Z,13.90
2023-03-15T06:48:50.192Z,14.00
2023-03-15T06:51:18.554Z,14.00
2023-03-15T06:53:46.935Z,14.00
2023-03-15T06:56:15.341Z,13.90
2023-03-15T06:58:43.907Z,13.90
2023-03-15T07:01:13.197Z,13.80
2023-03-15T07:03:43.000Z,13.80
2023-03-15T07:06:11.511Z,13.70
2023-03-15T07:08:39.899Z,13.60
2023-03-15T07:11:08.255Z,13.70
2023-03-15T07:13:36.649Z,13.70
2023-03-15T07:16:05.398Z,13.70
2023-03-15T07:18:33.825Z,13.70
2023-03-15T07:21:05.317Z,13.50
2023-03-15T07:23:33.773Z,13.30
2023-03-15T07:26:02.202Z,13.10
2023-03-15T07:28:30.635Z,13.10
2023-03-15T07:30:59.877Z,13.10
2023-03-15T07:33:29.000Z,12.90
2023-03-15T07:35:57.680Z,13.10
2023-03-15T07:38:28.932Z,13.20
2023-03-15T07:40:57.839Z,13.20
2023-03-15T07:43:26.328Z,13.20
2023-03-15T07:45:54.818Z,13.10
2023-03-15T07:48:23.349Z,13.10
2023-03-15T07:50:51.825Z,13.20
2023-03-15T07:53:20.371Z,13.30
2023-03-15T07:55:50.218Z,13.30
2023-03-15T07:58:20.291Z,13.30
2023-03-15T08:00:48.878Z,13.30
2023-03-15T08:03:17.524Z,13.30
2023-03-15T08:05:46.016Z,13.30
2023-03-15T08:08:14.428Z,13.40
2023-03-15T08:10:43.338Z,13.50
2023-03-15T08:13:13.358Z,13.40
2023-03-15T08:15:42.145Z,13.30
2023-03-15T08:18:10.619Z,13.20
2023-03-15T08:20:39.036Z,13.10
2023-03-15T08:23:08.543Z,13.00
2023-03-15T08:25:41.018Z,12.80
2023-03-15T08:28:09.701Z,12.50
2023-03-15T08:30:39.554Z,12.40
2023-03-15T08:33:08.482Z,12.30
2023-03-15T08:35:36.944Z,12.30
2023-03-15T08:38:05.420Z,12.40
2023-03-15T08:40:33.898Z,12.50
2023-03-15T08:43:02.314Z,12.50
2023-03-15T08:45:32.985Z,12.40
2023-03-15T08:48:03.045Z,12.40
2023-03-15T08:50:32.813Z,12.40
2023-03-15T08:53:01.216Z,12.60
2023-03-15T08:55:29.686Z,12.30
2023-03-15T08:57:58.112Z,12.20
2023-03-15T09:00:27.129Z,12.10
2023-03-15T09:02:55.978Z,11.90
2023-03-15T09:05:26.541Z,11.80
2023-03-15T09:07:55.017Z,11.60
2023-03-15T09:10:23.583Z,11.70
2023-03-15T09:12:54.041Z,11.70
2023-03-15T09:15:22.858Z,11.70
2023-03-15T09:17:52.437Z,11.80
2023-03-15T09:20:22.912Z,11.80
2023-03-15T09:22:54.061Z,11.80
2023-03-15T09:25:23.092Z,11.90
2023-03-15T09:27:51.657Z,11.90
2023-03-15T09:30:20.154Z,12.10
2023-03-15T09:32:49.032Z,12.10
2023-03-15T09:35:18.409Z,12.10
2023-03-15T09:37:47.344Z,12.10
2023-03-15T09:40:21.803Z,12.30
2023-03-15T09:42:55.986Z,12.30
2023-03-15T09:45:28.433Z,12.40
2023-03-15T09:48:01.489Z,12.40
2023-03-15T09:50:32.767Z,12.30
2023-03-15T09:53:03.462Z,12.30
2023-03-15T09:55:33.450Z,12.20
2023-03-15T09:58:02.870Z,12.20
2023-03-15T10:00:37.230Z,12.30
2023-03-15T10:03:09.812Z,12.20
2023-03-15T10:05:41.482Z,12.20
2023-03-15T10:08:11.699Z,12.20
2023-03-15T10:10:46.438Z,12.10
2023-03-15T10:13:23.309Z,12.00
2023-03-15T10:15:58.522Z,12.00
2023-03-15T10:18:37.312Z,12.00
2023-03-15T10:21:07.750Z,11.90
2023-03-15T10:23:40.368Z,11.90
2023-03-15T10:26:14.241Z,12.00
2023-03-15T10:28:43.483Z,12.00
2023-03-15T10:31:21.621Z,11.90
2023-03-15T10:33:54.668Z,11.80
2023-03-15T10:36:24.423Z,11.90
2023-03-15T10:38:54.054Z,11.80
2023-03-15T10:41:31.449Z,11.80
2023-03-15T10:44:01.285Z,11.80
2023-03-15T10:46:30.070Z,11.70
2023-03-15T10:48:59.379Z,11.60
2023-03-15T10:51:28.713Z,11.50
2023-03-15T10:53:58.391Z,11.50
2023-03-15T10:56:27.748Z,11.50
2023-03-15T10:59:11.965Z,11.50
2023-03-15T11:01:41.052Z,11.30
2023-03-15T11:04:16.759Z,11.30
2023-03-15T11:06:47.143Z,11.20
2023-03-15T11:09:16.360Z,11.10
2023-03-15T11:11:53.351Z,11.10
2023-03-15T11:14:23.204Z,11.00
2023-03-15T11:16:52.819Z,11.10
2023-03-15T11:19:21.857Z,11.20
2023-03-15T11:21:51.365Z,11.20
2023-03-15T11:24:23.217Z,11.30
2023-03-15T11:26:53.696Z,11.30
2023-03-15T11:29:28.166Z,11.50
2023-03-15T11:31:57.295Z,11.60
2023-03-15T11:34:28.480Z,11.60
2023-03-15T11:37:07.490Z,11.70
2023-03-15T11:39:39.053Z,11.80
2023-03-15T11:42:11.210Z,11.90
2023-03-15T11:44:43.033Z,11.80
2023-03-15T11:47:13.958Z,11.70
2023-03-15T11:49:45.390Z,11.70
2023-03-15T11:52:14.209Z,11.70
2023-03-15T11:54:42.692Z,11.70
2023-03-15T11:57:36.078Z,11.70
2023-03-15T12:00:19.136Z,11.80
2023-03-15T12:02:51.978Z,11.80
2023-03-15T12:05:38.769Z,11.80
2023-03-15T12:08:18.137Z,11.70
2023-03-15T12:10:47.624Z,11.70
2023-03-15T12:13:20.369Z,11.80
2023-03-15T12:15:50.778Z,11.80
2023-03-15T12:18:21.132Z,11.80
2023-03-15T12:20:54.533Z,11.70
2023-03-15T12:23:30.025Z,11.80
2023-03-15T12:25:59.622Z,11.70
2023-03-15T12:28:29.823Z,11.60
2023-03-15T12:31:02.032Z,11.60
2023-03-15T12:33:31.696Z,11.60
2023-03-15T12:36:01.838Z,11.70
2023-03-15T12:38:36.693Z,11.70
2023-03-15T12:41:07.917Z,11.70
2023-03-15T12:43:37.202Z,11.80
2023-03-15T12:46:07.621Z,11.70
2023-03-15T12:48:36.071Z,11.70
2023-03-15T12:51:14.627Z,11.60
2023-03-15T12:53:47.702Z,11.60
2023-03-15T12:56:34.633Z,11.60
2023-03-15T12:59:06.995Z,11.50
2023-03-15T13:01:37.088Z,11.50
2023-03-15T13:04:05.565Z,11.60
2023-03-15T13:06:38.504Z,11.60
2023-03-15T13:09:12.896Z,11.70
2023-03-15T13:11:43.785Z,11.70
2023-03-15T13:14:22.626Z,11.80
2023-03-15T13:16:57.717Z,11.50
2023-03-15T13:19:27.371Z,11.40
2023-03-15T13:22:03.916Z,11.40
2023-03-15T13:24:36.993Z,11.30
2023-03-15T13:27:08.894Z,11.30
2023-03-15T13:29:37.472Z,11.50
2023-03-15T13:32:13.186Z,11.50
2023-03-15T13:34:42.210Z,11.50
2023-03-15T13:37:14.340Z,11.70
2023-03-15T13:39:53.726Z,11.80
2023-03-15T13:42:24.004Z,11.80
2023-03-15T13:45:11.333Z,11.80
2023-03-15T13:47:42.428Z,11.90
2023-03-15T13:50:14.161Z,11.80
2023-03-15T13:52:42.770Z,11.80
2023-03-15T13:55:14.214Z,11.80
2023-03-15T13:57:43.123Z,11.90
2023-03-15T14:00:12.658Z,11.80
2023-03-15T14:02:48.129Z,11.90
2023-03-15T14:05:18.873Z,11.90
2023-03-15T14:07:48.634Z,11.80
2023-03-15T14:10:32.151Z,11.70
2023-03-15T14:13:17.664Z,11.80
2023-03-15T14:15:48.310Z,11.80
2023-03-15T14:18:20.645Z,11.80
2023-03-15T14:20:54.077Z,11.70
2023-03-15T14:23:24.077Z,11.80
2023-03-15T14:25:53.670Z,11.70
2023-03-15T14:28:24.468Z,11.70
2023-03-15T14:30:53.644Z,11.60
2023-03-15T14:33:30.255Z,11.50
2023-03-15T14:35:59.924Z,11.50
2023-03-15T14:38:33.602Z,11.40
2023-03-15T14:41:24.108Z,11.10
2023-03-15T14:43:52.807Z,11.00
2023-03-15T14:46:21.430Z,10.80
2023-03-15T14:48:52.434Z,10.70
2023-03-15T14:51:21.716Z,10.60
2023-03-15T14:53:53.304Z,10.60
2023-03-15T14:56:21.681Z,10.70
2023-03-15T14:58:50.353Z,10.70
2023-03-15T15:01:19.694Z,10.80
2023-03-15T15:03:49.119Z,10.80
2023-03-15T15:06:18.860Z,10.90
2023-03-15T15:08:48.412Z,10.90
2023-03-15T15:11:16.965Z,10.80
2023-03-15T15:13:45.484Z,10.90
2023-03-15T15:16:13.981Z,11.10
2023-03-15T15:18:42.383Z,11.10
2023-03-15T15:21:13.947Z,11.10
2023-03-15T15:23:57.327Z,11.00
2023-03-15T15:26:27.531Z,11.10
2023-03-15T15:28:56.523Z,11.00
2023-03-15T15:31:26.016Z,11.10
2023-03-15T15:33:55.168Z,11.10
2023-03-15T15:36:24.748Z,11.10
2023-03-15T15:38:54.633Z,11.10
2023-03-15T15:41:24.156Z,11.10
2023-03-15T15:43:54.794Z,11.20
2023-03-15T15:46:24.055Z,11.10
2023-03-15T15:48:52.705Z,10.90
2023-03-15T15:51:23.340Z,11.00
2023-03-15T15:53:51.913Z,10.90
2023-03-15T15:56:22.018Z,10.90
2023-03-15T15:58:50.475Z,10.90
2023-03-15T16:01:19.029Z,10.90
2023-03-15T16:03:47.447Z,10.70
2023-03-15T16:06:18.182Z,10.80
2023-03-15T16:08:47.257Z,10.80
2023-03-15T16:11:16.872Z,10.80
2023-03-15T16:13:47.132Z,10.80
2023-03-15T16:16:16.122Z,10.80
2023-03-15T16:18:44.959Z,10.80
2023-03-15T16:21:16.016Z,10.80
2023-03-15T16:23:45.495Z,10.90
2023-03-15T16:26:17.265Z,11.00
2023-03-15T16:28:51.871Z,11.10
2023-03-15T16:31:21.902Z,11.30
2023-03-15T16:33:50.793Z,11.40
2023-03-15T16:36:19.793Z,11.50
2023-03-15T16:38:48.505Z,11.50
2023-03-15T16:41:17.739Z,11.60
2023-03-15T16:43:49.365Z,11.60
2023-03-15T16:46:18.514Z,11.60
2023-03-15T16:48:46.916Z,11.70
2023-03-15T16:51:16.421Z,11.70
2023-03-15T16:53:45.702Z,11.50
2023-03-15T16:56:15.069Z,10.90
2023-03-15T16:58:44.667Z,10.40
2023-03-15T17:01:14.494Z,10.50
2023-03-15T17:03:42.951Z,10.40
2023-03-15T17:06:17.155Z,10.20
2023-03-15T17:08:45.638Z,9.90
2023-03-15T17:11:14.268Z,10.00
2023-03-15T17:13:43.142Z,10.00
2023-03-15T17:16:12.469Z,9.80
2023-03-15T17:18:42.553Z,9.90
2023-03-15T17:21:12.969Z,9.90
2023-03-15T17:23:41.820Z,10.20
2023-03-15T17:26:11.528Z,10.10
2023-03-15T17:28:41.010Z,10.00
2023-03-15T17:31:24.537Z,10.10
2023-03-15T17:33:55.391Z,10.10
2023-03-15T17:36:24.844Z,10.20
2023-03-15T17:38:54.221Z,10.10
2023-03-15T17:41:23.394Z,10.00
2023-03-15T17:43:52.892Z,10.10
2023-03-15T17:46:22.604Z,10.20
2023-03-15T17:48:51.131Z,10.20
2023-03-15T17:51:22.190Z,10.10
2023-03-15T17:53:50.931Z,10.10
2023-03-15T17:56:19.488Z,10.40
2023-03-15T17:58:47.869Z,10.50
2023-03-15T18:01:17.282Z,10.60
2023-03-15T18:03:46.751Z,10.80
2023-03-15T18:06:15.289Z,11.00
2023-03-15T18:08:45.419Z,11.10
2023-03-15T18:11:16.249Z,11.20
2023-03-15T18:13:44.701Z,11.30
2023-03-15T18:16:14.630Z,11.40
2023-03-15T18:18:43.502Z,11.50
2023-03-15T18:21:13.296Z,11.60
2023-03-15T18:23:41.791Z,11.60
2023-03-15T18:26:12.407Z,11.60
2023-03-15T18:28:41.047Z,11.70
2023-03-15T18:31:12.156Z,11.70
2023-03-15T18:33:40.581Z,11.80
2023-03-15T18:36:09.105Z,11.70
2023-03-15T18:38:37.629Z,11.80
2023-03-15T18:41:07.299Z,11.80
2023-03-15T18:43:37.179Z,11.80
2023-03-15T18:46:05.774Z,11.80
2023-03-15T18:48:40.830Z,11.80
2023-03-15T18:51:12.255Z,11.90
2023-03-15T18:53:42.619Z,12.00
2023-03-15T18:56:15.223Z,11.80
2023-03-15T18:58:45.080Z,11.50
2023-03-15T19:01:13.535Z,10.90
2023-03-15T19:03:42.065Z,10.50
2023-03-15T19:06:11.681Z,10.40
2023-03-15T19:08:40.555Z,10.30
2023-03-15T19:11:10.590Z,10.10
2023-03-15T19:13:39.222Z,10.00
2023-03-15T19:16:09.405Z,10.00
2023-03-15T19:18:40.813Z,10.00
2023-03-15T19:21:09.245Z,10.00
2023-03-15T19:23:37.698Z,10.10
2023-03-15T19:26:06.431Z,10.10
2023-03-15T19:28:34.833Z,10.20
2023-03-15T19:31:03.394Z,10.50
2023-03-15T19:33:34.603Z,10.70
2023-03-15T19:36:03.008Z,10.80
2023-03-15T19:38:31.501Z,10.80
2023-03-15T19:41:03.741Z,10.90
2023-03-15T19:43:32.629Z,10.90
2023-03-15T19:46:01.471Z,11.00
2023-03-15T19:48:29.988Z,11.20
2023-03-15T19:50:59.793Z,11.40
2023-03-15T19:53:30.032Z,11.40
2023-03-15T19:55:58.491Z,11.40
2023-03-15T19:58:26.885Z,11.40
2023-03-15T20:00:57.460Z,11.40
2023-03-15T20:03:26.108Z,11.60
2023-03-15T20:05:54.540Z,11.60
2023-03-15T20:08:26.322Z,11.50
2023-03-15T20:11:00.150Z,11.40
2023-03-15T20:13:28.643Z,11.40
2023-03-15T20:15:57.421Z,11.40
2023-03-15T20:18:26.096Z,11.50
2023-03-15T20:20:54.579Z,11.40
2023-03-15T20:23:24.675Z,11.30
2023-03-15T20:25:53.059Z,11.30
2023-03-15T20:28:21.481Z,11.20
2023-03-15T20:30:49.877Z,11.30
2023-03-15T20:33:18.616Z,11.30
2023-03-15T20:35:47.138Z,11.30
2023-03-15T20:38:15.551Z,11.40
2023-03-15T20:40:46.287Z,11.30
2023-03-15T20:43:15.177Z,11.40
2023-03-15T20:45:44.473Z,11.40
2023-03-15T20:48:13.727Z,11.40
2023-03-15T20:50:42.311Z,11.40
2023-03-15T20:53:10.873Z,11.40
2023-03-15T20:55:39.521Z,11.30
2023-03-15T20:58:09.492Z,11.20
2023-03-15T21:00:40.951Z,11.30
2023-03-15T21:03:14.855Z,11.30
2023-03-15T21:05:43.740Z,11.20
2023-03-15T21:08:12.512Z,11.10
2023-03-15T21:10:41.287Z,11.20
2023-03-15T21:13:11.803Z,11.20
2023-03-15T21:15:45.770Z,11.20
2023-03-15T21:18:14.666Z,11.20
2023-03-15T21:20:43.753Z,11.10
2023-03-15T21:23:13.725Z,11.00
2023-03-15T21:25:43.161Z,11.10
2023-03-15T21:28:14.313Z,11.10
2023-03-15T21:30:43.389Z,11.10
2023-03-15T21:33:12.579Z,11.00
2023-03-15T21:35:42.344Z,11.00
2023-03-15T21:38:11.607Z,11.10
2023-03-15T21:40:40.871Z,11.10
2023-03-15T21:43:10.119Z,11.20
2023-03-15T21:45:42.623Z,11.10
2023-03-15T21:48:11.832Z,11.10
2023-03-15T21:50:42.093Z,11.10
2023-03-15T21:53:11.020Z,11.10
2023-03-15T21:55:39.853Z,11.20
2023-03-15T21:58:08.364Z,11.20
2023-03-15T22:00:36.894Z,11.20
2023-03-15T22:03:06.754Z,11.20
2023-03-15T22:05:35.313Z,11.20
2023-03-15T22:08:03.732Z,11.20
2023-03-15T22:10:32.118Z,11.20
2023-03-15T22:13:00.500Z,11.20
2023-03-15T22:15:28.969Z,11.20
2023-03-15T22:17:57.434Z,11.20
2023-03-15T22:20:27.397Z,11.20
2023-03-15T22:22:55.949Z,11.20
2023-03-15T22:25:24.709Z,11.30
2023-03-15T22:27:53.125Z,11.30
2023-03-15T22:30:21.970Z,11.30
2023-03-15T22:32:50.364Z,11.20
2023-03-15T22:35:19.280Z,11.30
2023-03-15T22:37:56.402Z,11.20
2023-03-15T22:40:25.784Z,11.20
2023-03-15T22:42:54.584Z,11.10
2023-03-15T22:45:23.056Z,11.00
2023-03-15T22:47:51.459Z,11.10
2023-03-15T22:50:20.029Z,11.10
2023-03-15T22:52:51.860Z,11.10
2023-03-15T22:55:20.767Z,11.00
2023-03-15T22:57:49.306Z,11.00
2023-03-15T23:00:21.105Z,11.00
2023-03-15T23:02:49.603Z,10.90
2023-03-15T23:05:19.645Z,10.80
2023-03-15T23:07:49.703Z,10.80
2023-03-15T23:10:18.062Z,10.90
2023-03-15T23:12:46.438Z,10.90
2023-03-15T23:15:15.087Z,10.90
2023-03-15T23:17:46.569Z,10.80
2023-03-15T23:20:15.849Z,10.70
2023-03-15T23:22:44.673Z,10.70
2023-03-15T23:25:16.371Z,10.70
2023-03-15T23:27:44.812Z,10.80
2023-03-15T23:30:13.852Z,10.90
2023-03-15T23:32:42.368Z,10.80
2023-03-15T23:35:12.321Z,10.90
2023-03-15T23:37:41.066Z,10.90
2023-03-15T23:40:15.279Z,10.90
2023-03-15T23:42:45.573Z,10.90
2023-03-15T23:45:15.361Z,11.00
2023-03-15T23:47:43.847Z,11.00
2023-03-15T23:50:13.874Z,10.90
2023-03-15T23:52:42.605Z,10.80
2023-03-15T23:55:11.678Z,10.70
2023-03-15T23:57:40.349Z,10.70
